Time;durP1;ratioP1;P1;durP2;ratioP2;P2;SDS_P1;SDS_P2;PMS_P1;PMS_P2;Temp;Humidity;BMP_temperature;BMP_pressure;BME280_temperature;BME280_humidity;BME280_pressure;Samples;Min_cycle;Max_cycle;Signal;HPM_P1;HPM_P2
2022/02/03 00:04:06;;;;;;;21.80;9.23;;;;;;;7.24;53.43;98538.50;8445930;28;20237;-64
2022/02/03 00:08:17;;;;;;;19.20;9.00;;;;;;;7.20;53.33;98538.59;8447264;28;20237;-64
2022/02/03 00:17:01;;;;;;;16.27;8.63;;;;;;;7.17;53.35;98544.66;8397517;28;20229;-64
2022/02/03 00:25:33;;;;;;;22.37;9.30;;;;;;;7.15;53.09;98543.00;8446910;28;20230;-64
2022/02/03 00:29:52;;;;;;;20.47;9.70;;;;;;;7.14;52.70;98541.28;8438608;28;20513;-64
2022/02/03 00:34:03;;;;;;;17.77;8.80;;;;;;;7.07;52.75;98544.91;8446534;28;20233;-64
2022/02/03 00:48:12;;;;;;;17.87;8.37;;;;;;;7.02;52.38;98542.41;8446678;28;20245;-64
2022/02/03 00:51:34;;;;;;;19.83;9.67;;;;;;;6.87;52.84;98535.00;8412600;28;20233;-65
2022/02/03 00:55:37;;;;;;;22.03;10.13;;;;;;;6.75;53.78;98533.53;8412691;28;20257;-64
2022/02/03 00:59:53;;;;;;;23.90;10.17;;;;;;;6.94;54.05;98528.84;8412697;28;20424;-65
2022/02/03 01:03:58;;;;;;;20.97;10.20;;;;;;;6.99;53.79;98521.88;8418720;28;20235;-64
2022/02/03 01:08:05;;;;;;;19.73;9.23;;;;;;;6.95;53.64;98530.53;8418621;28;20545;-64
2022/02/03 01:12:16;;;;;;;20.43;10.23;;;;;;;6.92;53.71;98526.31;8418677;28;20230;-64
2022/02/03 01:16:32;;;;;;;18.93;9.10;;;;;;;6.53;54.41;98530.50;8418576;28;20242;-64
2022/02/03 01:34:09;;;;;;;20.13;7.13;;;;;;;6.52;56.01;98534.81;8417463;28;20413;-64
2022/02/03 01:47:03;;;;;;;23.43;8.50;;;;;;;6.84;55.40;98530.78;8419429;28;20222;-64
2022/02/03 01:55:30;;;;;;;19.63;8.30;;;;;;;7.01;55.08;98530.44;8419207;28;20235;-64
2022/02/03 01:59:36;;;;;;;24.50;8.07;;;;;;;6.54;56.75;98515.03;8416965;28;20364;-64
2022/02/03 02:03:47;;;;;;;18.23;8.00;;;;;;;6.36;57.57;98516.25;8416858;28;20230;-64
2022/02/03 02:07:58;;;;;;;22.23;7.80;;;;;;;6.39;57.47;98525.63;8417087;28;20242;-65
2022/02/03 02:12:20;;;;;;;20.30;7.93;;;;;;;6.82;55.94;98510.19;8417014;28;20233;-64
2022/02/03 02:16:43;;;;;;;22.80;8.73;;;;;;;6.57;56.70;98509.84;8416671;28;20430;-64
2022/02/03 02:38:29;;;;;;;21.13;9.33;;;;;;;6.34;58.48;98499.13;8415689;28;20423;-66
2022/02/03 02:42:40;;;;;;;27.70;9.23;;;;;;;6.28;58.47;98510.38;8415566;28;20237;-64
2022/02/03 02:46:46;;;;;;;19.03;8.47;;;;;;;6.53;57.56;98497.06;8416005;28;20239;-64
2022/02/03 02:50:57;;;;;;;22.20;8.97;;;;;;;6.21;58.79;98493.38;8415307;28;20236;-64
2022/02/03 02:55:12;;;;;;;26.00;9.17;;;;;;;6.38;58.39;98488.75;8415225;28;20239;-64
2022/02/03 02:59:37;;;;;;;22.70;8.97;;;;;;;6.13;59.08;98477.22;8415502;28;20243;-64
2022/02/03 03:04:28;;;;;;;18.73;8.70;;;;;;;6.16;59.13;98472.88;8415015;28;20227;-64
2022/02/03 03:30:28;;;;;;;24.70;9.20;;;;;;;6.32;59.51;98464.88;8414555;28;20230;-64
2022/02/03 03:34:57;;;;;;;20.87;8.50;;;;;;;6.53;58.67;98456.75;8413991;28;20231;-65
2022/02/03 03:39:00;;;;;;;23.40;9.10;;;;;;;6.68;58.61;98453.00;8420668;28;20230;-64
2022/02/03 03:43:06;;;;;;;21.10;9.53;;;;;;;6.59;57.96;98448.91;8447761;28;20226;-64
2022/02/03 03:47:13;;;;;;;21.60;9.07;;;;;;;6.64;58.06;98447.09;8447690;28;20234;-64
2022/02/03 03:51:19;;;;;;;23.13;9.60;;;;;;;6.40;59.25;98445.00;8447926;28;20237;-64
2022/02/03 03:55:35;;;;;;;22.70;9.43;;;;;;;6.47;59.28;98443.97;8447776;28;20237;-64
2022/02/03 04:58:24;;;;;;;21.43;10.60;;;;;;;6.78;59.45;98387.56;8445950;27;20594;-64
2022/02/03 05:02:41;;;;;;;17.73;10.50;;;;;;;6.82;59.07;98378.06;8441924;28;20214;-64
2022/02/03 05:07:04;;;;;;;21.10;10.87;;;;;;;6.67;59.96;98376.66;8432254;28;20221;-64
2022/02/03 05:11:34;;;;;;;20.37;11.27;;;;;;;6.46;60.91;98368.53;8435879;28;20233;-65
2022/02/03 05:20:41;;;;;;;27.07;11.53;;;;;;;6.23;62.03;98376.72;8431848;28;20230;-64
2022/02/03 05:47:49;;;;;;;24.37;12.63;;;;;;;6.41;61.50;98372.91;8455621;28;20252;-64
2022/02/03 06:01:04;;;;;;;29.93;17.73;;;;;;;5.71;64.99;98366.56;8432994;28;20414;-64
2022/02/03 06:05:13;;;;;;;31.60;17.60;;;;;;;5.81;64.76;98362.97;8423468;28;20308;-64
2022/02/03 06:13:44;;;;;;;23.50;12.47;;;;;;;5.88;64.59;98349.09;8398477;28;20226;-65
2022/02/03 06:20:41;;;;;;;22.50;12.43;;;;;;;6.20;63.34;98337.38;8409726;28;20230;-65
2022/02/03 06:22:28;;;;;;;20.23;12.77;;;;;;;6.37;64.50;98340.41;8417621;28;20227;-64
2022/02/03 06:30:55;;;;;;;22.83;14.30;;;;;;;6.64;62.79;98330.41;8417844;28;20301;-66
2022/02/03 06:34:58;;;;;;;26.03;16.10;;;;;;;6.57;62.73;98331.44;8417337;28;20241;-64
2022/02/03 06:39:01;;;;;;;25.57;13.27;;;;;;;6.85;61.98;98331.63;8417492;28;20230;-65
2022/02/03 06:43:05;;;;;;;25.73;15.20;;;;;;;6.08;65.54;98335.91;8417302;28;20227;-64
2022/02/03 06:47:15;;;;;;;24.07;15.20;;;;;;;6.26;64.23;98324.38;8417400;28;20242;-64
2022/02/03 06:51:26;;;;;;;25.27;15.77;;;;;;;6.21;64.13;98323.63;8417254;28;20515;-64
2022/02/03 06:55:46;;;;;;;29.43;17.43;;;;;;;6.12;65.64;98332.38;8416516;28;20231;-64
2022/02/03 06:59:56;;;;;;;23.40;17.30;;;;;;;6.15;65.22;98323.75;8416831;28;20235;-64
2022/02/03 07:04:02;;;;;;;30.17;18.03;;;;;;;6.32;64.67;98331.09;8416491;28;20227;-65
2022/02/03 07:08:06;;;;;;;29.20;18.07;;;;;;;6.61;63.56;98325.34;8416479;28;20686;-65
2022/02/03 07:12:10;;;;;;;31.73;17.53;;;;;;;6.20;65.47;98324.50;8416184;28;20245;-64
2022/02/03 07:16:14;;;;;;;24.00;16.77;;;;;;;6.67;63.93;98320.03;8416103;28;20231;-64
2022/02/03 07:20:23;;;;;;;26.83;17.63;;;;;;;6.15;65.88;98316.91;8415058;28;20227;-64
2022/02/03 07:24:26;;;;;;;29.67;18.87;;;;;;;6.45;65.42;98317.97;8415819;28;20242;-64
2022/02/03 07:28:29;;;;;;;28.17;17.67;;;;;;;6.64;64.68;98315.81;8416129;28;20525;-64
2022/02/03 07:32:33;;;;;;;23.33;16.20;;;;;;;6.98;63.69;98320.16;8415350;28;20229;-64
2022/02/03 07:36:36;;;;;;;28.17;17.90;;;;;;;6.80;64.84;98316.31;8415567;28;20407;-65
2022/02/03 07:40:41;;;;;;;28.33;17.97;;;;;;;6.99;63.78;98319.28;8415421;28;20234;-64
2022/02/03 07:44:44;;;;;;;26.07;17.70;;;;;;;7.15;63.49;98313.75;8415557;28;20246;-64
2022/02/03 07:48:52;;;;;;;27.10;17.77;;;;;;;7.33;63.02;98322.75;8414704;28;20314;-64
2022/02/03 07:52:55;;;;;;;25.30;19.07;;;;;;;7.23;63.80;98311.81;8414937;28;20227;-64
2022/02/03 07:56:58;;;;;;;27.00;18.73;;;;;;;7.15;63.50;98312.03;8414764;28;20238;-64
2022/02/03 08:01:01;;;;;;;24.30;17.50;;;;;;;7.50;62.81;98305.13;8414922;28;20227;-64
2022/02/03 08:05:07;;;;;;;24.20;17.30;;;;;;;7.46;63.86;98302.66;8414653;28;20231;-64
2022/02/03 08:09:18;;;;;;;26.50;16.07;;;;;;;7.66;63.54;98297.81;8414621;28;20226;-64
2022/02/03 08:13:30;;;;;;;25.33;17.07;;;;;;;7.78;63.02;98294.06;8414453;28;20242;-64
2022/02/03 08:17:37;;;;;;;33.10;21.17;;;;;;;7.48;64.39;98299.16;8405995;28;20230;-65
2022/02/03 08:21:46;;;;;;;23.97;17.77;;;;;;;7.95;63.40;98291.00;8414269;28;20421;-64
2022/02/03 08:26:02;;;;;;;27.23;19.20;;;;;;;7.95;63.55;98297.00;8414107;28;20250;-65
2022/02/03 08:30:21;;;;;;;26.03;18.63;;;;;;;8.20;63.02;98294.56;8413906;28;20336;-64
2022/02/03 08:34:34;;;;;;;26.17;18.83;;;;;;;8.07;64.30;98294.97;8414299;28;20277;-64
2022/02/03 08:38:47;;;;;;;27.83;19.73;;;;;;;7.96;64.12;98290.13;8413385;28;20226;-65
2022/02/03 08:42:50;;;;;;;21.37;15.90;;;;;;;8.46;72.02;98300.72;8413693;28;20237;-67
2022/02/03 08:46:53;;;;;;;19.03;13.83;;;;;;;11.00;73.66;98294.31;8413818;28;20227;-68
2022/02/03 08:50:56;;;;;;;17.87;13.67;;;;;;;11.67;59.22;98289.78;8413911;28;20230;-68
2022/02/03 08:55:07;;;;;;;16.60;14.10;;;;;;;12.17;57.24;98278.13;8413408;28;20437;-67
2022/02/03 08:59:34;;;;;;;22.90;17.27;;;;;;;12.02;52.96;98277.88;8413329;28;20237;-67
2022/02/03 09:38:53;;;;;;;22.73;17.93;;;;;;;9.63;64.16;98226.22;8379298;28;20228;-68
2022/02/03 09:56:10;;;;;;;28.77;21.47;;;;;;;9.66;66.07;98226.13;8385764;28;20417;-67
2022/02/03 10:00:32;;;;;;;30.27;23.00;;;;;;;9.76;66.10;98227.47;8385549;28;20231;-68
2022/02/03 10:04:46;;;;;;;24.30;20.27;;;;;;;9.87;66.14;98237.44;8384876;28;20534;-67
2022/02/03 10:08:52;;;;;;;27.70;20.90;;;;;;;9.84;65.79;98232.34;8385399;28;20232;-69
2022/02/03 10:12:55;;;;;;;25.57;21.17;;;;;;;10.07;65.69;98219.41;8385545;28;20510;-74
2022/02/03 10:17:08;;;;;;;24.13;20.37;;;;;;;10.39;64.78;98203.56;8385489;28;20231;-69
2022/02/03 10:21:15;;;;;;;24.37;20.60;;;;;;;10.46;65.09;98205.84;8385547;28;20238;-68
2022/02/03 10:25:22;;;;;;;20.10;17.50;;;;;;;10.48;64.96;98198.84;8384941;28;20231;-68
2022/02/03 10:29:31;;;;;;;20.27;18.17;;;;;;;10.69;64.48;98204.91;8385124;28;20242;-68
2022/02/03 10:33:38;;;;;;;19.57;16.53;;;;;;;10.75;64.66;98199.47;8384282;28;20232;-67
2022/02/03 10:37:47;;;;;;;19.27;16.77;;;;;;;10.62;65.27;98192.25;8384703;28;20231;-69
2022/02/03 10:42:08;;;;;;;18.63;16.70;;;;;;;10.57;65.07;98187.28;8385021;28;20239;-68
2022/02/03 10:46:38;;;;;;;18.27;16.47;;;;;;;10.57;65.46;98179.50;8384859;28;20246;-69
2022/02/03 10:50:57;;;;;;;17.27;15.57;;;;;;;10.41;66.25;98176.69;8383665;28;20235;-69
2022/02/03 10:55:24;;;;;;;16.63;14.93;;;;;;;10.36;67.00;98153.59;8383753;28;20235;-68
2022/02/03 11:04:26;;;;;;;16.27;14.57;;;;;;;10.29;66.86;98144.34;8362908;28;20540;-68
2022/02/03 11:08:34;;;;;;;14.90;13.17;;;;;;;10.45;65.98;98141.16;8383124;28;20236;-69
2022/02/03 11:12:39;;;;;;;15.07;13.47;;;;;;;10.46;65.26;98145.44;8382767;28;20235;-69
2022/02/03 11:16:41;;;;;;;16.07;14.47;;;;;;;10.40;66.07;98136.19;8383095;28;20235;-69
2022/02/03 11:20:45;;;;;;;17.37;15.57;;;;;;;10.31;66.84;98127.03;8382942;28;20231;-69
2022/02/03 11:24:59;;;;;;;15.67;14.07;;;;;;;10.46;65.85;98104.84;8382618;28;20238;-68
2022/02/03 11:29:21;;;;;;;16.00;14.50;;;;;;;10.56;65.70;98093.19;8383032;28;20533;-69
2022/02/03 11:42:52;;;;;;;13.57;12.27;;;;;;;10.58;64.94;98067.25;8382405;28;20410;-68
2022/02/03 11:47:39;;;;;;;14.23;12.60;;;;;;;10.59;64.65;98039.63;8377222;28;20497;-69
2022/02/03 11:56:40;;;;;;;12.13;11.03;;;;;;;10.78;63.84;98034.47;8312848;28;20430;-62
2022/02/03 12:05:56;;;;;;;10.23;9.23;;;;;;;10.93;62.95;98018.25;8357006;28;20277;-63
2022/02/03 12:10:42;;;;;;;9.70;8.80;;;;;;;10.72;63.31;98010.50;8385438;28;20230;-62
2022/02/03 12:15:20;;;;;;;11.37;8.80;;;;;;;10.93;62.93;98000.94;8414715;28;20226;-62
2022/02/03 12:19:29;;;;;;;8.80;8.00;;;;;;;10.99;62.82;97994.63;8415078;28;20226;-62
2022/02/03 12:23:52;;;;;;;7.83;7.10;;;;;;;10.90;62.91;97995.88;8414059;28;20230;-63
2022/02/03 12:28:13;;;;;;;9.00;8.10;;;;;;;11.04;62.39;97997.00;8414424;28;20230;-62
2022/02/03 12:32:25;;;;;;;7.50;6.70;;;;;;;11.11;62.19;97985.47;8414466;28;20233;-62
2022/02/03 12:40:55;;;;;;;7.47;5.77;;;;;;;11.02;61.75;97950.44;8407971;28;20247;-62
2022/02/03 12:45:13;;;;;;;5.57;5.07;;;;;;;10.83;62.18;97957.38;8414009;28;20570;-61
2022/02/03 12:49:17;;;;;;;5.20;4.53;;;;;;;11.00;61.63;97949.66;8413824;28;20230;-62
2022/02/03 12:53:21;;;;;;;4.30;3.90;;;;;;;10.95;60.75;97947.28;8413296;28;20223;-62
2022/02/03 12:57:31;;;;;;;5.27;3.93;;;;;;;10.93;60.99;97924.97;8413697;28;20254;-62
2022/02/03 13:01:37;;;;;;;4.27;3.87;;;;;;;11.05;61.19;97926.16;8434451;28;20521;-63
2022/02/03 13:05:43;;;;;;;8.93;6.57;;;;;;;11.30;61.63;97911.09;8447042;28;20428;-62
2022/02/03 13:09:53;;;;;;;4.20;3.80;;;;;;;11.15;60.69;97911.81;8441135;28;20234;-61
2022/02/03 13:14:09;;;;;;;27.90;18.60;;;;;;;11.13;60.59;97905.88;8390506;28;20231;-62
2022/02/03 13:18:17;;;;;;;9.53;6.93;;;;;;;11.15;60.42;97909.22;8400969;28;20572;-61
2022/02/03 13:22:30;;;;;;;8.93;8.03;;;;;;;11.20;60.13;97915.06;8403072;28;20223;-63
2022/02/03 13:26:36;;;;;;;4.70;4.30;;;;;;;11.27;60.24;97897.44;8402847;28;20226;-62
2022/02/03 13:30:46;;;;;;;4.30;2.70;;;;;;;11.07;60.37;97894.06;8402654;28;20238;-62
2022/02/03 13:34:55;;;;;;;4.07;2.60;;;;;;;11.19;59.56;97891.78;8402251;28;20232;-62
2022/02/03 13:39:04;;;;;;;3.90;3.60;;;;;;;11.43;59.48;97884.59;8399664;28;20231;-62
2022/02/03 13:43:11;;;;;;;3.20;2.33;;;;;;;11.26;59.47;97877.63;8402113;28;20245;-63
2022/02/03 13:47:24;;;;;;;6.20;4.40;;;;;;;11.11;59.13;97880.03;8401669;28;20231;-64
2022/02/03 13:51:28;;;;;;;2.97;2.47;;;;;;;11.30;59.04;97879.16;8400833;28;20407;-62
2022/02/03 14:22:05;;;;;;;2.60;2.40;;;;;;;11.47;58.51;97818.69;8376064;28;20239;-65
2022/02/03 14:30:42;;;;;;;4.80;3.30;;;;;;;11.30;59.06;97819.53;8346730;28;20231;-63
2022/02/03 14:34:48;;;;;;;4.00;3.60;;;;;;;11.37;58.47;97807.13;8393115;28;20227;-63
2022/02/03 14:39:00;;;;;;;3.67;3.30;;;;;;;11.31;58.06;97798.72;8400409;28;20266;-63
2022/02/03 14:43:05;;;;;;;10.10;8.93;;;;;;;11.44;58.40;97809.31;8404063;28;20231;-63
2022/02/03 14:47:08;;;;;;;8.07;7.27;;;;;;;11.36;58.40;97795.88;8417467;28;20238;-64
2022/02/03 14:51:13;;;;;;;4.70;4.07;;;;;;;11.40;58.28;97794.81;8417432;28;20237;-63
2022/02/03 14:59:38;;;;;;;4.77;4.27;;;;;;;11.33;58.20;97777.91;8399167;28;20229;-63
2022/02/03 15:03:41;;;;;;;4.00;3.60;;;;;;;11.32;58.50;97768.44;8399585;28;20222;-63
2022/02/03 15:07:44;;;;;;;4.57;4.17;;;;;;;11.35;58.56;97760.50;8396321;28;20235;-62
2022/02/03 15:12:04;;;;;;;5.40;4.87;;;;;;;11.25;58.75;97757.56;8401692;28;20223;-63
2022/02/03 15:16:12;;;;;;;4.10;3.70;;;;;;;11.07;59.17;97772.25;8398709;28;20242;-63
2022/02/03 15:20:35;;;;;;;5.50;3.63;;;;;;;11.08;59.34;97735.06;8399776;28;20230;-63
2022/02/03 15:24:38;;;;;;;4.40;3.87;;;;;;;11.11;59.27;97726.28;8413208;28;20231;-62
2022/02/03 15:28:45;;;;;;;3.60;2.67;;;;;;;10.90;59.75;97705.72;8416489;28;20295;-62
2022/02/03 15:32:49;;;;;;;3.03;2.73;;;;;;;10.78;60.64;97697.75;8416262;28;20231;-62
2022/02/03 15:36:55;;;;;;;3.30;2.83;;;;;;;10.85;60.11;97696.50;8415684;28;20234;-62
2022/02/03 15:41:01;;;;;;;3.57;3.27;;;;;;;10.73;60.93;97696.19;8415004;28;20541;-62
2022/02/03 15:45:07;;;;;;;3.60;3.30;;;;;;;10.71;61.44;97695.44;8415522;28;20538;-62
2022/02/03 15:49:19;;;;;;;4.10;3.70;;;;;;;11.05;60.34;97703.28;8415371;28;20227;-62
2022/02/03 16:02:27;;;;;;;4.23;3.83;;;;;;;10.93;60.59;97691.78;8412233;28;20234;-62
2022/02/03 16:19:50;;;;;;;5.10;4.60;;;;;;;11.00;59.61;97734.59;8447749;28;20237;-62
2022/02/03 16:54:45;;;;;;;5.73;5.00;;;;;;;10.72;60.54;97742.91;8357017;28;20338;-63
2022/02/03 16:58:49;;;;;;;9.03;8.13;;;;;;;10.76;60.63;97762.56;8433416;28;20290;-63
2022/02/03 17:02:53;;;;;;;20.50;15.97;;;;;;;10.72;60.60;97767.03;8392510;28;20231;-62
2022/02/03 17:06:56;;;;;;;9.73;8.50;;;;;;;10.40;61.42;97718.56;8440118;28;20402;-63
2022/02/03 17:11:01;;;;;;;6.53;5.93;;;;;;;10.71;60.58;97738.63;8434233;28;20510;-62
2022/02/03 17:15:06;;;;;;;8.77;7.87;;;;;;;10.62;60.89;97716.59;8410720;28;20234;-66
2022/02/03 17:19:09;;;;;;;7.60;6.83;;;;;;;10.55;61.07;97713.47;8413012;28;20238;-66
2022/02/03 17:23:16;;;;;;;8.97;7.07;;;;;;;10.49;61.39;97707.72;8413051;28;20223;-66
2022/02/03 17:27:27;;;;;;;7.10;6.40;;;;;;;10.46;61.18;97706.13;8413310;28;20534;-66
2022/02/03 17:31:45;;;;;;;6.50;5.90;;;;;;;10.27;62.15;97711.31;8413121;28;20568;-66
2022/02/03 18:10:50;;;;;;;7.50;6.80;;;;;;;10.56;61.23;97724.66;8433440;28;20238;-69
2022/02/03 18:37:42;;;;;;;9.90;8.47;;;;;;;10.46;61.46;97688.03;8359919;28;20433;-69
2022/02/03 18:50:42;;;;;;;8.57;7.10;;;;;;;10.24;62.17;97659.69;8383779;28;20232;-69
2022/02/03 18:55:03;;;;;;;8.17;7.37;;;;;;;10.54;61.40;97660.00;8389212;28;20231;-69
2022/02/03 18:59:21;;;;;;;8.63;7.13;;;;;;;10.47;61.78;97653.47;8390979;28;20233;-70
2022/02/03 20:04:38;;;;;;;11.07;8.93;;;;;;;10.59;61.33;97627.88;8415494;28;20234;-68
2022/02/03 20:08:49;;;;;;;9.30;7.40;;;;;;;10.37;62.22;97631.50;8408018;28;20263;-70
2022/02/03 20:12:52;;;;;;;9.17;8.17;;;;;;;10.55;61.73;97637.56;8414820;28;20548;-69
2022/02/03 20:16:55;;;;;;;9.00;8.20;;;;;;;10.52;61.64;97648.06;8402397;28;20231;-69
2022/02/03 20:21:00;;;;;;;8.53;7.33;;;;;;;10.44;61.91;97630.31;8397095;28;20423;-69
2022/02/03 20:25:03;;;;;;;8.33;7.53;;;;;;;10.49;61.63;97632.66;8396679;28;20227;-69
2022/02/03 20:29:06;;;;;;;8.33;7.10;;;;;;;10.55;61.51;97651.31;8396827;28;20292;-70
2022/02/03 20:33:09;;;;;;;6.90;6.30;;;;;;;10.44;61.64;97645.84;8396830;28;20250;-69
2022/02/03 20:37:15;;;;;;;7.87;6.70;;;;;;;10.46;61.63;97649.19;8396680;28;20290;-68
2022/02/03 20:41:18;;;;;;;7.27;6.57;;;;;;;10.40;62.01;97646.06;8397381;28;20553;-68
2022/02/03 20:45:21;;;;;;;7.47;6.77;;;;;;;10.43;61.88;97614.84;8396364;28;20236;-69
2022/02/03 20:49:24;;;;;;;7.33;6.63;;;;;;;10.44;61.79;97616.53;8397815;28;20246;-69
2022/02/03 20:53:29;;;;;;;8.23;6.63;;;;;;;10.50;61.61;97611.88;8393642;28;20231;-69
2022/02/03 20:57:31;;;;;;;7.63;6.60;;;;;;;10.50;61.60;97629.16;8396068;28;20546;-69
2022/02/03 21:01:37;;;;;;;6.43;5.83;;;;;;;10.38;61.37;97620.25;8396153;28;20420;-69
2022/02/03 21:05:41;;;;;;;7.17;6.50;;;;;;;10.28;61.32;97624.16;8396153;28;20223;-68
2022/02/03 21:09:48;;;;;;;6.60;6.00;;;;;;;10.38;60.81;97633.19;8394797;28;20227;-68
2022/02/03 21:13:54;;;;;;;6.30;5.80;;;;;;;10.37;61.25;97618.56;8395994;28;20239;-68
2022/02/03 21:18:01;;;;;;;5.53;5.03;;;;;;;10.23;60.80;97619.22;8395914;28;20420;-69
2022/02/03 21:22:04;;;;;;;5.63;5.13;;;;;;;10.30;60.42;97615.47;8396134;28;20230;-68
2022/02/03 21:26:16;;;;;;;5.87;4.43;;;;;;;10.18;60.06;97601.34;8395624;28;20227;-68
2022/02/03 21:30:20;;;;;;;5.00;4.23;;;;;;;10.02;59.70;97597.81;8395643;28;20242;-69
2022/02/03 21:34:25;;;;;;;6.27;3.60;;;;;;;10.10;59.49;97594.84;8395556;28;20219;-69
2022/02/03 21:38:28;;;;;;;4.03;3.10;;;;;;;10.06;58.83;97596.75;8401606;28;20236;-68
2022/02/03 21:42:33;;;;;;;3.03;2.73;;;;;;;10.17;58.47;97601.41;8401734;28;20406;-69
2022/02/03 21:46:36;;;;;;;4.40;3.23;;;;;;;10.16;58.52;97589.38;8401940;28;20429;-69
2022/02/03 21:50:41;;;;;;;3.00;2.70;;;;;;;10.13;58.23;97599.88;8403570;28;20231;-69
2022/02/03 21:54:44;;;;;;;3.80;2.80;;;;;;;10.10;58.47;97607.78;8402873;28;20231;-69
2022/02/03 21:58:48;;;;;;;3.40;3.10;;;;;;;10.13;58.12;97608.47;8401461;28;20231;-69
2022/02/03 22:02:52;;;;;;;3.00;2.70;;;;;;;10.14;58.37;97617.06;8401447;28;20518;-68
2022/02/03 22:06:55;;;;;;;3.53;3.20;;;;;;;10.06;58.36;97606.25;8401451;28;20232;-69
2022/02/03 22:11:00;;;;;;;3.00;2.70;;;;;;;10.18;58.27;97616.00;8401082;28;20235;-70
2022/02/03 22:15:05;;;;;;;3.27;2.97;;;;;;;10.08;58.07;97614.78;8401031;28;20227;-69
2022/02/03 22:19:08;;;;;;;2.90;2.60;;;;;;;10.00;57.61;97617.75;8400767;28;20231;-69
2022/02/03 22:23:26;;;;;;;4.33;2.90;;;;;;;9.95;57.36;97619.69;8400980;28;20235;-69
2022/02/03 22:27:53;;;;;;;2.97;2.67;;;;;;;9.92;57.69;97630.22;8400940;28;20398;-69
2022/02/03 22:45:16;;;;;;;3.40;3.10;;;;;;;10.17;56.48;97614.34;8333441;28;20408;-67
2022/02/03 22:49:20;;;;;;;3.20;2.90;;;;;;;9.87;57.43;97617.47;8402152;28;20219;-67
2022/02/03 22:53:24;;;;;;;3.10;2.47;;;;;;;10.04;57.64;97621.84;8399962;28;20629;-67
2022/02/03 22:57:27;;;;;;;3.10;2.80;;;;;;;9.76;57.67;97619.72;8399874;28;20227;-67
2022/02/03 23:01:32;;;;;;;5.93;3.00;;;;;;;9.78;58.17;97631.66;8400063;28;20234;-67
2022/02/03 23:05:36;;;;;;;3.67;3.13;;;;;;;9.67;57.89;97630.47;8390380;28;20423;-68
2022/02/03 23:09:50;;;;;;;3.90;3.50;;;;;;;9.57;58.55;97632.66;8383489;28;20250;-68
2022/02/03 23:14:07;;;;;;;4.20;3.80;;;;;;;9.88;57.64;97626.06;8383639;28;20514;-67
2022/02/03 23:18:24;;;;;;;5.43;3.63;;;;;;;9.89;57.59;97615.66;8405826;28;20529;-68
2022/02/03 23:22:29;;;;;;;4.20;3.80;;;;;;;9.72;58.05;97634.53;8416112;28;20303;-68
2022/02/03 23:26:32;;;;;;;4.47;4.07;;;;;;;9.85;57.90;97624.47;8415707;28;20231;-68
2022/02/03 23:30:35;;;;;;;3.70;3.30;;;;;;;9.98;57.51;97632.50;8416202;28;20418;-67
2022/02/03 23:34:40;;;;;;;4.83;4.00;;;;;;;9.98;57.20;97643.66;8415797;28;20237;-67
2022/02/03 23:38:51;;;;;;;4.60;3.70;;;;;;;9.98;57.20;97640.25;8415916;28;20231;-67
2022/02/03 23:47:46;;;;;;;6.10;4.60;;;;;;;9.91;57.26;97641.44;8415278;28;20290;-67
2022/02/03 23:52:08;;;;;;;4.50;4.10;;;;;;;10.09;57.24;97648.34;8415002;28;20230;-67
